createdAt,value
2022-09-02T00:00:43.694Z,100342.22
2022-09-02T00:03:12.646Z,100340.19
2022-09-02T00:05:42.540Z,100341.16
2022-09-02T00:08:11.852Z,100342.13
2022-09-02T00:10:41.815Z,100343.06
2022-09-02T00:13:11.927Z,100337.72
2022-09-02T00:15:40.593Z,100336.06
2022-09-02T00:18:15.460Z,100337.72
2022-09-02T00:20:49.473Z,100328.91
2022-09-02T00:23:18.203Z,100329.13
2022-09-02T00:25:47.022Z,100326.66
2022-09-02T00:28:16.897Z,100325.09
2022-09-02T00:30:49.091Z,100325.09
2022-09-02T00:33:18.158Z,100329.59
2022-09-02T00:35:47.757Z,100326.06
2022-09-02T00:38:16.120Z,100325.38
2022-09-02T00:40:47.177Z,100320.78
2022-09-02T00:43:24.622Z,100320.72
2022-09-02T00:45:54.324Z,100320.88
2022-09-02T00:48:22.638Z,100315.63
2022-09-02T00:50:52.599Z,100317.34
2022-09-02T00:53:21.164Z,100318.03
2022-09-02T00:55:52.729Z,100321.56
2022-09-02T00:58:23.508Z,100318.91
2022-09-02T01:00:56.725Z,100316.13
2022-09-02T01:03:28.850Z,100315.09
2022-09-02T01:06:01.156Z,100321.19
2022-09-02T01:08:34.114Z,100318.53
2022-09-02T01:11:06.384Z,100313.94
2022-09-02T01:13:40.067Z,100308.81
2022-09-02T01:16:14.824Z,100309.75
2022-09-02T01:18:48.580Z,100304.41
2022-09-02T01:21:18.724Z,100317.03
2022-09-02T01:23:49.420Z,100316.06
2022-09-02T01:26:19.444Z,100310.78
2022-09-02T01:28:47.604Z,100312.53
2022-09-02T01:31:15.805Z,100307.19
2022-09-02T01:33:44.141Z,100309.00
2022-09-02T01:36:14.004Z,100309.06
2022-09-02T01:38:42.244Z,100311.75
2022-09-02T01:41:11.718Z,100313.56
2022-09-02T01:43:40.003Z,100309.25
2022-09-02T01:46:08.069Z,100307.44
2022-09-02T01:48:37.327Z,100309.06
2022-09-02T01:51:06.016Z,100312.69
2022-09-02T01:53:35.103Z,100305.72
2022-09-02T01:56:03.730Z,100301.53
2022-09-02T01:58:36.328Z,100300.47
2022-09-02T02:01:04.916Z,100298.75
2022-09-02T02:03:33.990Z,100295.31
2022-09-02T02:06:02.167Z,100293.63
2022-09-02T02:08:30.897Z,100298.00
2022-09-02T02:11:01.200Z,100288.28
2022-09-02T02:13:30.991Z,100293.63
2022-09-02T02:16:00.497Z,100295.53
2022-09-02T02:18:29.855Z,100290.28
2022-09-02T02:20:57.962Z,100294.56
2022-09-02T02:23:26.495Z,100291.25
2022-09-02T02:25:54.615Z,100290.56
2022-09-02T02:28:22.758Z,100295.03
2022-09-02T02:30:51.123Z,100291.59
2022-09-02T02:33:20.684Z,100281.97
2022-09-02T02:35:53.334Z,100286.66
2022-09-02T02:38:24.735Z,100285.22
2022-09-02T02:40:56.596Z,100286.72
2022-09-02T02:43:26.650Z,100285.97
2022-09-02T02:45:55.209Z,100276.44
2022-09-02T02:48:24.749Z,100272.16
2022-09-02T02:50:52.864Z,100276.63
2022-09-02T02:53:21.021Z,100275.09
2022-09-02T02:55:49.931Z,100281.38
2022-09-02T02:58:19.831Z,100281.38
2022-09-02T03:00:50.390Z,100291.31
2022-09-02T03:03:22.555Z,100291.41
2022-09-02T03:05:56.149Z,100289.69
2022-09-02T03:08:25.875Z,100287.97
2022-09-02T03:10:56.358Z,100286.25
2022-09-02T03:13:29.620Z,100280.41
2022-09-02T03:16:02.193Z,100276.03
2022-09-02T03:18:30.449Z,100280.81
2022-09-02T03:21:01.357Z,100283.56
2022-09-02T03:23:29.753Z,100286.41
2022-09-02T03:25:57.924Z,100278.78
2022-09-02T03:28:33.685Z,100280.59
2022-09-02T03:31:03.832Z,100277.41
2022-09-02T03:33:32.515Z,100274.84
2022-09-02T03:36:01.965Z,100281.03
2022-09-02T03:38:30.146Z,100284.84
2022-09-02T03:40:58.329Z,100284.19
2022-09-02T03:43:26.602Z,100279.69
2022-09-02T03:45:54.931Z,100285.13
2022-09-02T03:48:23.711Z,100275.56
2022-09-02T03:50:51.861Z,100277.56
2022-09-02T03:53:23.776Z,100282.13
2022-09-02T03:55:58.063Z,100277.75
2022-09-02T03:58:29.044Z,100279.56
2022-09-02T04:00:59.623Z,100279.72
2022-09-02T04:03:28.396Z,100279.88
2022-09-02T04:05:57.054Z,100280.81
2022-09-02T04:08:29.369Z,100271.00
2022-09-02T04:11:05.630Z,100276.34
2022-09-02T04:13:35.015Z,100281.59
2022-09-02T04:16:08.102Z,100277.19
2022-09-02T04:18:39.721Z,100284.44
2022-09-02T04:21:08.171Z,100286.06
2022-09-02T04:23:39.697Z,100284.25
2022-09-02T04:26:10.584Z,100288.72
2022-09-02T04:28:39.099Z,100285.91
2022-09-02T04:31:08.748Z,100281.44
2022-09-02T04:33:38.773Z,100278.66
2022-09-02T04:36:10.331Z,100281.44
2022-09-02T04:38:42.944Z,100285.75
2022-09-02T04:41:14.019Z,100290.28
2022-09-02T04:43:43.084Z,100291.09
2022-09-02T04:46:14.172Z,100290.22
2022-09-02T04:48:45.791Z,100297.19
2022-09-02T04:51:16.363Z,100294.63
2022-09-02T04:53:49.222Z,100295.38
2022-09-02T04:56:21.503Z,100292.63
2022-09-02T04:58:51.710Z,100291.41
2022-09-02T05:01:24.413Z,100294.13
2022-09-02T05:03:55.311Z,100298.47
2022-09-02T05:06:29.308Z,100301.91
2022-09-02T05:09:02.407Z,100303.78
2022-09-02T05:11:34.212Z,100307.22
2022-09-02T05:14:04.867Z,100305.22
2022-09-02T05:16:37.741Z,100300.56
2022-09-02T05:19:12.655Z,100302.22
2022-09-02T05:21:47.097Z,100305.66
2022-09-02T05:24:39.318Z,100302.88
2022-09-02T05:27:10.728Z,100307.25
2022-09-02T05:29:40.624Z,100302.88
2022-09-02T05:32:11.778Z,100307.06
2022-09-02T05:34:41.168Z,100307.69
2022-09-02T05:37:09.541Z,100307.28
2022-09-02T05:39:39.681Z,100309.88
2022-09-02T05:42:09.591Z,100301.75
2022-09-02T05:44:39.088Z,100306.94
2022-09-02T05:47:10.153Z,100297.03
2022-09-02T05:49:39.630Z,100301.31
2022-09-02T05:52:14.548Z,100296.44
2022-09-02T05:54:49.423Z,100297.03
2022-09-02T05:57:20.253Z,100302.75
2022-09-02T06:00:07.801Z,100296.19
2022-09-02T06:02:42.265Z,100303.81
2022-09-02T06:05:16.488Z,100305.50
2022-09-02T06:07:49.681Z,100299.41
2022-09-02T06:10:23.039Z,100302.47
2022-09-02T06:12:51.923Z,100307.72
2022-09-02T06:15:23.066Z,100303.91
2022-09-02T06:17:51.645Z,100297.59
2022-09-02T06:20:20.018Z,100310.53
2022-09-02T06:22:49.593Z,100308.59
2022-09-02T06:25:21.044Z,100311.00
2022-09-02T06:27:51.678Z,100309.94
2022-09-02T06:30:19.991Z,100313.47
2022-09-02T06:32:50.558Z,100314.59
2022-09-02T06:35:19.908Z,100316.88
2022-09-02T06:37:48.380Z,100320.63
2022-09-02T06:40:16.807Z,100320.91
2022-09-02T06:42:45.650Z,100312.28
2022-09-02T06:45:29.460Z,100317.72
2022-09-02T06:48:00.502Z,100321.00
2022-09-02T06:50:29.127Z,100315.25
2022-09-02T06:52:57.276Z,100314.09
2022-09-02T06:55:25.398Z,100316.47
2022-09-02T06:57:53.889Z,100322.13
2022-09-02T07:00:22.505Z,100311.06
2022-09-02T07:03:12.111Z,100311.13
2022-09-02T07:05:40.448Z,100319.59
2022-09-02T07:08:09.531Z,100319.97
2022-09-02T07:10:39.542Z,100313.66
2022-09-02T07:13:10.369Z,100312.31
2022-09-02T07:15:38.733Z,100316.63
2022-09-02T07:18:12.637Z,100309.38
2022-09-02T07:20:41.644Z,100313.25
2022-09-02T07:23:09.985Z,100312.97
2022-09-02T07:25:41.229Z,100322.03
2022-09-02T07:28:12.254Z,100309.28
2022-09-02T07:30:43.293Z,100319.66
2022-09-02T07:33:16.942Z,100321.94
2022-09-02T07:35:47.032Z,100315.31
2022-09-02T07:38:17.796Z,100323.38
2022-09-02T07:40:49.094Z,100317.88
2022-09-02T07:43:18.275Z,100317.84
2022-09-02T07:45:47.127Z,100308.25
2022-09-02T07:48:16.837Z,100310.63
2022-09-02T07:50:47.490Z,100312.00
2022-09-02T07:53:18.142Z,100315.56
2022-09-02T07:55:48.221Z,100314.06
2022-09-02T07:58:18.703Z,100312.34
2022-09-02T08:00:48.601Z,100312.22
2022-09-02T08:03:20.360Z,100310.88
2022-09-02T08:05:55.582Z,100306.03
2022-09-02T08:08:26.438Z,100309.97
2022-09-02T08:10:55.418Z,100317.72
2022-09-02T08:13:27.059Z,100314.81
2022-09-02T08:15:56.393Z,100315.47
2022-09-02T08:18:26.160Z,100313.66
2022-09-02T08:20:54.251Z,100314.78
2022-09-02T08:23:38.092Z,100312.78
2022-09-02T08:26:07.394Z,100310.75
2022-09-02T08:28:35.855Z,100305.50
2022-09-02T08:31:07.457Z,100314.25
2022-09-02T08:33:38.694Z,100311.91
2022-09-02T08:36:08.934Z,100302.41
2022-09-02T08:38:37.870Z,100311.84
2022-09-02T08:41:13.865Z,100302.22
2022-09-02T08:43:45.334Z,100306.50
2022-09-02T08:46:18.171Z,100298.19
2022-09-02T08:48:52.950Z,100298.69
2022-09-02T08:51:30.366Z,100295.69
2022-09-02T08:54:09.070Z,100306.00
2022-09-02T08:56:37.223Z,100309.66
2022-09-02T08:59:07.179Z,100301.63
2022-09-02T09:01:46.606Z,100299.22
2022-09-02T09:04:38.743Z,100303.81
2022-09-02T09:07:16.803Z,100299.03
2022-09-02T09:10:04.035Z,100299.91
2022-09-02T09:12:49.053Z,100296.16
2022-09-02T09:15:25.845Z,100301.16
2022-09-02T09:17:58.664Z,100291.22
2022-09-02T09:20:31.268Z,100290.59
2022-09-02T09:23:01.402Z,100297.13
2022-09-02T09:25:31.098Z,100289.84
2022-09-02T09:27:59.662Z,100293.91
2022-09-02T09:30:28.301Z,100290.16
2022-09-02T09:32:59.915Z,100290.44
2022-09-02T09:35:47.740Z,100286.38
2022-09-02T09:38:15.908Z,100294.28
2022-09-02T09:40:44.268Z,100290.66
2022-09-02T09:43:16.355Z,100277.06
2022-09-02T09:45:46.033Z,100282.53
2022-09-02T09:48:23.031Z,100276.88
2022-09-02T09:51:13.025Z,100277.19
2022-09-02T09:53:41.245Z,100273.63
2022-09-02T09:56:28.677Z,100273.03
2022-09-02T09:58:56.918Z,100269.94
2022-09-02T10:01:27.869Z,100262.72
2022-09-02T10:03:59.081Z,100263.28
2022-09-02T10:06:40.326Z,100267.44
2022-09-02T10:09:30.822Z,100264.25
2022-09-02T10:12:00.934Z,100271.25
2022-09-02T10:14:35.342Z,100272.53
2022-09-02T10:17:20.071Z,100273.28
2022-09-02T10:19:55.388Z,100270.59
2022-09-02T10:23:00.101Z,100263.38
2022-09-02T10:25:41.091Z,100266.25
2022-09-02T10:28:20.024Z,100264.75
2022-09-02T10:30:56.569Z,100270.34
2022-09-02T10:33:37.586Z,100269.16
2022-09-02T10:36:19.786Z,100267.53
2022-09-02T10:38:51.916Z,100269.59
2022-09-02T10:44:36.794Z,100275.25
2022-09-02T10:47:11.610Z,100270.34
2022-09-02T10:49:54.847Z,100264.22
2022-09-02T10:52:38.577Z,100258.97
2022-09-02T10:55:18.960Z,100250.91
2022-09-02T10:57:50.280Z,100257.88
2022-09-02T11:00:20.498Z,100259.81
2022-09-02T11:02:57.599Z,100261.41
2022-09-02T11:05:29.315Z,100257.28
2022-09-02T11:08:02.490Z,100259.22
2022-09-02T11:10:36.097Z,100257.56
2022-09-02T11:13:06.440Z,100259.78
2022-09-02T11:15:45.967Z,100253.66
2022-09-02T11:18:23.987Z,100258.09
2022-09-02T11:21:02.080Z,100261.53
2022-09-02T11:23:38.830Z,100247.38
2022-09-02T11:26:12.968Z,100242.13
2022-09-02T11:28:47.747Z,100238.81
2022-09-02T11:31:22.911Z,100238.31
2022-09-02T11:33:57.736Z,100241.69
2022-09-02T11:36:30.953Z,100238.97
2022-09-02T11:39:06.832Z,100239.28
2022-09-02T11:42:00.734Z,100225.09
2022-09-02T11:45:18.243Z,100231.63
2022-09-02T11:48:24.735Z,100235.47
2022-09-02T11:51:06.260Z,100225.13
2022-09-02T11:53:39.723Z,100218.41
2022-09-02T11:56:16.196Z,100224.19
2022-09-02T11:58:48.074Z,100217.66
2022-09-02T12:01:30.147Z,100217.91
2022-09-02T12:07:29.728Z,100214.31
2022-09-02T12:10:02.859Z,100220.84
2022-09-02T12:13:08.121Z,100218.47
2022-09-02T12:15:43.433Z,100212.31
2022-09-02T12:18:32.115Z,100212.19
2022-09-02T12:21:18.261Z,100221.00
2022-09-02T12:24:11.655Z,100213.00
2022-09-02T12:27:22.771Z,100212.72
2022-09-02T12:29:52.154Z,100211.25
2022-09-02T12:33:13.525Z,100205.84
2022-09-02T12:35:57.732Z,100212.25
2022-09-02T12:38:29.032Z,100201.88
2022-09-02T12:41:13.300Z,100200.88
2022-09-02T12:43:53.563Z,100199.09
2022-09-02T12:46:29.601Z,100200.47
2022-09-02T12:49:05.552Z,100201.03
2022-09-02T12:51:54.957Z,100201.03
2022-09-02T12:54:37.043Z,100200.97
2022-09-02T12:57:05.435Z,100196.72
2022-09-02T12:59:36.555Z,100189.31
2022-09-02T13:02:30.489Z,100191.75
2022-09-02T13:05:16.147Z,100185.94
2022-09-02T13:08:15.093Z,100186.19
2022-09-02T13:11:38.692Z,100185.72
2022-09-02T13:14:32.053Z,100187.09
2022-09-02T13:17:35.455Z,100183.84
2022-09-02T13:20:42.139Z,100180.72
2022-09-02T13:23:41.173Z,100179.50
2022-09-02T13:26:48.941Z,100184.44
2022-09-02T13:30:03.174Z,100177.84
2022-09-02T13:32:33.033Z,100171.63
2022-09-02T13:35:05.209Z,100175.13
2022-09-02T13:37:36.583Z,100183.94
2022-09-02T13:40:17.809Z,100173.72
2022-09-02T13:42:49.713Z,100169.56
2022-09-02T13:45:19.774Z,100174.91
2022-09-02T13:47:50.688Z,100171.63
2022-09-02T13:50:22.376Z,100168.94
2022-09-02T13:53:45.213Z,100167.53
2022-09-02T13:55:50.776Z,100162.94
2022-09-02T13:58:33.060Z,100166.19
2022-09-02T14:01:21.855Z,100162.31
2022-09-02T14:03:51.942Z,100163.63
2022-09-02T14:06:23.751Z,100161.81
2022-09-02T14:08:54.276Z,100161.69
2022-09-02T14:11:24.463Z,100163.25
2022-09-02T14:13:53.246Z,100159.88
2022-09-02T14:16:34.066Z,100161.56
2022-09-02T14:19:11.666Z,100160.59
2022-09-02T14:21:47.053Z,100157.22
2022-09-02T14:24:17.167Z,100161.56
2022-09-02T14:26:49.120Z,100166.34
2022-09-02T14:29:18.891Z,100169.78
2022-09-02T14:31:48.294Z,100164.84
2022-09-02T14:34:39.537Z,100167.47
2022-09-02T14:37:21.873Z,100173.66
2022-09-02T14:39:55.174Z,100158.91
2022-09-02T14:42:28.405Z,100169.91
2022-09-02T14:44:59.482Z,100162.75
2022-09-02T14:47:28.752Z,100166.47
2022-09-02T14:49:57.493Z,100164.91
2022-09-02T14:52:28.999Z,100164.66
2022-09-02T14:54:58.719Z,100167.47
2022-09-02T14:57:33.160Z,100171.56
2022-09-02T15:00:06.849Z,100173.06
2022-09-02T15:02:35.881Z,100177.38
2022-09-02T15:05:06.531Z,100180.56
2022-09-02T15:07:35.095Z,100187.44
2022-09-02T15:10:04.253Z,100188.47
2022-09-02T15:12:35.785Z,100184.69
2022-09-02T15:15:04.012Z,100185.59
2022-09-02T15:17:32.356Z,100185.88
2022-09-02T15:20:00.566Z,100186.59
2022-09-02T15:22:28.731Z,100198.63
2022-09-02T15:24:57.954Z,100199.59
2022-09-02T15:27:26.111Z,100192.78
2022-09-02T15:29:55.796Z,100193.50
2022-09-02T15:32:24.159Z,100195.63
2022-09-02T15:34:52.347Z,100204.63
2022-09-02T15:37:20.639Z,100203.66
2022-09-02T15:39:49.601Z,100209.47
2022-09-02T15:42:18.589Z,100203.66
2022-09-02T15:44:46.810Z,100205.63
2022-09-02T15:47:16.496Z,100213.84
2022-09-02T15:49:44.729Z,100215.28
2022-09-02T15:52:12.838Z,100221.03
2022-09-02T15:54:41.042Z,100225.13
2022-09-02T15:57:09.212Z,100223.00
2022-09-02T15:59:37.512Z,100226.47
2022-09-02T16:02:06.191Z,100228.34
2022-09-02T16:04:36.904Z,100230.00
2022-09-02T16:07:05.374Z,100228.03
2022-09-02T16:09:33.502Z,100235.03
2022-09-02T16:12:01.837Z,100233.91
2022-09-02T16:14:30.007Z,100238.19
2022-09-02T16:16:58.509Z,100242.63
2022-09-02T16:19:30.178Z,100245.31
2022-09-02T16:22:02.210Z,100239.22
2022-09-02T16:24:30.359Z,100244.34
2022-09-02T16:26:58.684Z,100241.16
2022-09-02T16:29:28.097Z,100250.09
2022-09-02T16:34:46.833Z,100246.31
2022-09-02T16:37:17.610Z,100250.34
2022-09-02T16:39:45.980Z,100252.63
2022-09-02T16:42:14.252Z,100253.31
2022-09-02T16:44:42.628Z,100253.06
2022-09-02T16:47:12.397Z,100257.13
2022-09-02T16:49:42.299Z,100253.66
2022-09-02T16:52:10.822Z,100257.09
2022-09-02T16:54:41.372Z,100258.78
2022-09-02T16:57:09.825Z,100261.13
2022-09-02T16:59:38.156Z,100256.34
2022-09-02T17:02:06.861Z,100256.59
2022-09-02T17:04:35.105Z,100267.75
2022-09-02T17:07:03.307Z,100269.75
2022-09-02T17:09:31.453Z,100270.00
2022-09-02T17:12:01.166Z,100269.91
2022-09-02T17:14:30.409Z,100267.66
2022-09-02T17:16:58.629Z,100269.50
2022-09-02T17:19:31.548Z,100268.81
2022-09-02T17:22:00.613Z,100269.34
2022-09-02T17:24:30.871Z,100269.94
2022-09-02T17:27:02.140Z,100269.88
2022-09-02T17:29:48.436Z,100266.59
2022-09-02T17:32:17.603Z,100269.47
2022-09-02T17:34:46.139Z,100269.94
2022-09-02T17:37:17.797Z,100271.94
2022-09-02T17:39:46.628Z,100268.59
2022-09-02T17:42:15.681Z,100270.09
2022-09-02T17:44:44.085Z,100262.50
2022-09-02T17:47:14.514Z,100272.91
2022-09-02T17:49:44.667Z,100273.28
2022-09-02T17:52:14.856Z,100268.84
2022-09-02T17:54:44.904Z,100275.47
2022-09-02T17:57:29.304Z,100283.16
2022-09-02T18:00:10.658Z,100279.91
2022-09-02T18:03:03.646Z,100283.91
2022-09-02T18:05:37.266Z,100282.59
2022-09-02T18:08:10.194Z,100290.50
2022-09-02T18:10:43.205Z,100287.59
2022-09-02T18:13:15.001Z,100291.78
2022-09-02T18:15:53.536Z,100281.50
2022-09-02T18:18:21.880Z,100291.63
2022-09-02T18:20:57.446Z,100292.41
2022-09-02T18:23:51.992Z,100290.34
2022-09-02T18:26:30.378Z,100286.03
2022-09-02T18:29:14.750Z,100284.88
2022-09-02T18:31:54.817Z,100287.22
2022-09-02T18:34:39.525Z,100289.38
2022-09-02T18:37:13.649Z,100286.06
2022-09-02T18:40:03.421Z,100281.91
2022-09-02T18:42:46.071Z,100283.72
2022-09-02T18:45:22.195Z,100290.25
2022-09-02T18:47:55.145Z,100292.72
2022-09-02T18:50:47.690Z,100294.09
2022-09-02T18:53:19.753Z,100287.50
2022-09-02T18:55:49.214Z,100290.47
2022-09-02T18:58:34.416Z,100290.69
2022-09-02T19:01:08.157Z,100297.53
2022-09-02T19:03:37.881Z,100297.66
2022-09-02T19:06:11.246Z,100301.06
2022-09-02T19:08:38.809Z,100299.06
2022-09-02T19:11:12.932Z,100297.63
2022-09-02T19:13:47.537Z,100303.00
2022-09-02T19:16:20.384Z,100299.69
2022-09-02T19:18:49.336Z,100309.53
2022-09-02T19:21:21.154Z,100305.91
2022-09-02T19:23:50.138Z,100302.25
2022-09-02T19:26:19.013Z,100303.22
2022-09-02T19:28:48.533Z,100306.31
2022-09-02T19:31:21.877Z,100313.59
2022-09-02T19:33:52.880Z,100315.53
2022-09-02T19:36:26.256Z,100315.19
2022-09-02T19:38:56.615Z,100313.91
2022-09-02T19:41:27.753Z,100311.63
2022-09-02T19:43:56.328Z,100319.13
2022-09-02T19:47:20.661Z,100310.00
2022-09-02T19:49:15.998Z,100299.75
2022-09-02T19:51:44.670Z,100304.13
2022-09-02T19:54:14.903Z,100308.41
2022-09-02T19:56:43.409Z,100315.22
2022-09-02T19:59:12.160Z,100310.50
2022-09-02T20:01:41.904Z,100307.06
2022-09-02T20:04:11.664Z,100308.50
2022-09-02T20:06:39.856Z,100310.94
2022-09-02T20:09:08.020Z,100311.34
2022-09-02T20:11:37.231Z,100303.50
2022-09-02T20:14:09.383Z,100307.03
2022-09-02T20:16:37.720Z,100305.44
2022-09-02T20:19:07.659Z,100313.28
2022-09-02T20:21:43.315Z,100317.03
2022-09-02T20:24:16.578Z,100320.28
2022-09-02T20:26:58.647Z,100316.09
2022-09-02T20:29:37.955Z,100323.47
2022-09-02T20:32:15.523Z,100322.22
2022-09-02T20:34:57.640Z,100323.09
2022-09-02T20:37:40.627Z,100314.63
2022-09-02T20:40:34.827Z,100314.13
2022-09-02T20:43:17.084Z,100322.72
2022-09-02T20:45:53.096Z,100319.19
2022-09-02T20:48:38.179Z,100321.00
2022-09-02T20:51:13.014Z,100314.59
2022-09-02T20:54:10.888Z,100315.28
2022-09-02T20:56:48.415Z,100319.38
2022-09-02T20:59:26.856Z,100326.13
2022-09-02T21:01:58.787Z,100323.94
2022-09-02T21:04:36.061Z,100316.50
2022-09-02T21:07:12.187Z,100325.47
2022-09-02T21:09:46.689Z,100314.59
2022-09-02T21:12:24.350Z,100325.75
2022-09-02T21:15:00.211Z,100316.78
2022-09-02T21:17:36.386Z,100317.53
2022-09-02T21:20:11.972Z,100319.72
2022-09-02T21:22:47.386Z,100311.44
2022-09-02T21:25:22.324Z,100322.38
2022-09-02T21:27:55.126Z,100317.25
2022-09-02T21:30:27.455Z,100321.72
2022-09-02T21:32:58.700Z,100314.00
2022-09-02T21:35:32.791Z,100314.28
2022-09-02T21:38:05.315Z,100320.00
2022-09-02T21:40:45.933Z,100319.03
2022-09-02T21:43:27.568Z,100319.75
2022-09-02T21:46:05.635Z,100319.63
2022-09-02T21:48:41.530Z,100330.81
2022-09-02T21:51:20.480Z,100322.53
2022-09-02T21:54:04.585Z,100319.09
2022-09-02T21:56:49.620Z,100323.75
2022-09-02T21:59:40.039Z,100323.09
2022-09-02T22:02:12.743Z,100324.81
2022-09-02T22:04:53.624Z,100326.69
2022-09-02T22:07:27.511Z,100321.34
2022-09-02T22:10:06.810Z,100324.56
2022-09-02T22:12:39.890Z,100324.81
2022-09-02T22:15:15.830Z,100326.13
2022-09-02T22:17:51.632Z,100317.00
2022-09-02T22:20:24.042Z,100319.00
2022-09-02T22:22:55.723Z,100316.41
2022-09-02T22:25:26.840Z,100317.19
2022-09-02T22:28:01.732Z,100317.09
2022-09-02T22:30:32.663Z,100314.59
2022-09-02T22:33:08.019Z,100309.44
2022-09-02T22:35:42.999Z,100316.56
2022-09-02T22:38:21.955Z,100313.81
2022-09-02T22:40:58.124Z,100313.91
2022-09-02T22:43:41.498Z,100306.19
2022-09-02T22:46:34.753Z,100305.41
2022-09-02T22:49:27.415Z,100309.34
2022-09-02T22:52:21.856Z,100310.69
2022-09-02T22:54:52.333Z,100307.34
2022-09-02T22:57:33.880Z,100310.84
2022-09-02T23:00:07.218Z,100304.31
2022-09-02T23:02:38.390Z,100295.66
2022-09-02T23:05:36.565Z,100297.28
2022-09-02T23:08:06.310Z,100290.41
2022-09-02T23:10:39.882Z,100287.66
2022-09-02T23:13:14.860Z,100294.28
2022-09-02T23:15:55.106Z,100292.72
2022-09-02T23:18:33.729Z,100289.91
2022-09-02T23:21:10.728Z,100288.09
2022-09-02T23:23:49.735Z,100285.50
2022-09-02T23:26:33.222Z,100291.84
2022-09-02T23:29:15.936Z,100285.03
2022-09-02T23:32:23.580Z,100283.41
2022-09-02T23:35:07.303Z,100279.72
2022-09-02T23:37:49.551Z,100285.91
2022-09-02T23:40:24.048Z,100285.03
2022-09-02T23:42:52.451Z,100281.75
2022-09-02T23:45:24.960Z,100283.56
2022-09-02T23:48:20.476Z,100282.00
2022-09-02T23:50:59.279Z,100280.88
2022-09-02T23:53:34.646Z,100282.78
2022-09-02T23:56:13.301Z,100289.22
2022-09-02T23:58:59.785Z,100284.22
